sensor_id;sensor_type;location;lat;lon;timestamp;temperature;humidity
47384;DHT22;33129;52.232;5.192;2022-12-24T00:00:33;12.50;1.00
47384;DHT22;33129;52.232;5.192;2022-12-24T00:02:59;12.40;1.00
47384;DHT22;33129;52.232;5.192;2022-12-24T00:05:25;12.50;1.00
47384;DHT22;33129;52.232;5.192;2022-12-24T00:07:51;12.60;1.00
47384;DHT22;33129;52.232;5.192;2022-12-24T00:10:17;12.50;1.00
47384;DHT22;33129;52.232;5.192;2022-12-24T00:12:42;12.40;1.00
47384;DHT22;33129;52.232;5.192;2022-12-24T00:15:09;12.50;1.00
47384;DHT22;33129;52.232;5.192;2022-12-24T00:17:35;12.40;1.00
47384;DHT22;33129;52.232;5.192;2022-12-24T00:20:01;12.50;1.00
47384;DHT22;33129;52.232;5.192;2022-12-24T00:22:26;12.30;1.00
47384;DHT22;33129;52.232;5.192;2022-12-24T00:24:52;12.40;1.00
47384;DHT22;33129;52.232;5.192;2022-12-24T00:27:18;12.30;1.00
47384;DHT22;33129;52.232;5.192;2022-12-24T00:29:44;12.30;1.00
47384;DHT22;33129;52.232;5.192;2022-12-24T00:32:09;12.30;1.00
47384;DHT22;33129;52.232;5.192;2022-12-24T00:34:36;12.50;1.00
47384;DHT22;33129;52.232;5.192;2022-12-24T00:37:03;12.50;1.00
47384;DHT22;33129;52.232;5.192;2022-12-24T00:39:30;12.40;1.00
47384;DHT22;33129;52.232;5.192;2022-12-24T00:41:56;12.10;1.00
47384;DHT22;33129;52.232;5.192;2022-12-24T00:44:22;12.50;1.00
47384;DHT22;33129;52.232;5.192;2022-12-24T00:46:48;12.20;1.00
47384;DHT22;33129;52.232;5.192;2022-12-24T00:49:14;12.30;1.00
47384;DHT22;33129;52.232;5.192;2022-12-24T00:51:40;12.10;1.00
47384;DHT22;33129;52.232;5.192;2022-12-24T00:54:06;12.50;1.00
47384;DHT22;33129;52.232;5.192;2022-12-24T00:56:32;12.40;1.00
47384;DHT22;33129;52.232;5.192;2022-12-24T00:58:58;12.10;1.00
47384;DHT22;33129;52.232;5.192;2022-12-24T01:01:25;12.00;1.00
47384;DHT22;33129;52.232;5.192;2022-12-24T01:03:51;12.10;1.00
47384;DHT22;33129;52.232;5.192;2022-12-24T01:06:37;12.50;1.00
47384;DHT22;33129;52.232;5.192;2022-12-24T01:09:03;12.20;1.00
47384;DHT22;33129;52.232;5.192;2022-12-24T01:11:28;12.40;1.00
47384;DHT22;33129;52.232;5.192;2022-12-24T01:13:54;12.20;1.00
47384;DHT22;33129;52.232;5.192;2022-12-24T01:16:20;12.30;1.00
47384;DHT22;33129;52.232;5.192;2022-12-24T01:18:46;12.00;1.00
47384;DHT22;33129;52.232;5.192;2022-12-24T01:21:12;12.20;1.00
47384;DHT22;33129;52.232;5.192;2022-12-24T01:23:39;12.30;1.00
47384;DHT22;33129;52.232;5.192;2022-12-24T01:26:05;12.20;1.00
47384;DHT22;33129;52.232;5.192;2022-12-24T01:28:31;12.00;1.00
47384;DHT22;33129;52.232;5.192;2022-12-24T01:30:58;12.30;1.00
47384;DHT22;33129;52.232;5.192;2022-12-24T01:33:26;12.40;1.00
47384;DHT22;33129;52.232;5.192;2022-12-24T01:35:53;12.10;1.00
47384;DHT22;33129;52.232;5.192;2022-12-24T01:38:19;12.00;1.00
47384;DHT22;33129;52.232;5.192;2022-12-24T01:40:44;12.00;1.00
47384;DHT22;33129;52.232;5.192;2022-12-24T01:43:30;11.90;1.00
47384;DHT22;33129;52.232;5.192;2022-12-24T01:46:03;11.90;1.00
47384;DHT22;33129;52.232;5.192;2022-12-24T01:48:55;12.20;1.00
47384;DHT22;33129;52.232;5.192;2022-12-24T01:54:51;12.10;1.00
47384;DHT22;33129;52.232;5.192;2022-12-24T01:57:09;11.80;1.00
47384;DHT22;33129;52.232;5.192;2022-12-24T01:59:39;12.00;1.00
47384;DHT22;33129;52.232;5.192;2022-12-24T02:02:08;11.90;1.00
47384;DHT22;33129;52.232;5.192;2022-12-24T02:04:54;12.10;1.00
47384;DHT22;33129;52.232;5.192;2022-12-24T02:07:22;12.00;1.00
47384;DHT22;33129;52.232;5.192;2022-12-24T02:09:52;11.90;1.00
47384;DHT22;33129;52.232;5.192;2022-12-24T02:12:21;11.90;1.00
47384;DHT22;33129;52.232;5.192;2022-12-24T02:14:47;11.80;1.00
47384;DHT22;33129;52.232;5.192;2022-12-24T02:17:24;11.70;1.00
47384;DHT22;33129;52.232;5.192;2022-12-24T02:23:20;11.60;1.00
47384;DHT22;33129;52.232;5.192;2022-12-24T02:35:23;11.70;1.00
47384;DHT22;33129;52.232;5.192;2022-12-24T02:38:13;11.50;1.00
47384;DHT22;33129;52.232;5.192;2022-12-24T02:40:47;11.70;1.00
47384;DHT22;33129;52.232;5.192;2022-12-24T02:43:23;11.20;1.00
47384;DHT22;33129;52.232;5.192;2022-12-24T02:45:58;11.30;1.00
47384;DHT22;33129;52.232;5.192;2022-12-24T02:48:29;11.30;1.00
47384;DHT22;33129;52.232;5.192;2022-12-24T02:51:05;11.30;1.00
47384;DHT22;33129;52.232;5.192;2022-12-24T02:53:33;11.50;1.00
47384;DHT22;33129;52.232;5.192;2022-12-24T02:59:27;11.30;1.00
47384;DHT22;33129;52.232;5.192;2022-12-24T03:07:43;11.50;1.00
47384;DHT22;33129;52.232;5.192;2022-12-24T03:10:25;11.50;1.00
47384;DHT22;33129;52.232;5.192;2022-12-24T03:13:05;11.40;1.00
47384;DHT22;33129;52.232;5.192;2022-12-24T03:15:36;11.50;1.00
47384;DHT22;33129;52.232;5.192;2022-12-24T03:18:04;11.50;1.00
47384;DHT22;33129;52.232;5.192;2022-12-24T03:20:59;11.50;1.00
47384;DHT22;33129;52.232;5.192;2022-12-24T03:23:29;11.30;1.00
47384;DHT22;33129;52.232;5.192;2022-12-24T03:25:55;11.70;1.00
47384;DHT22;33129;52.232;5.192;2022-12-24T03:28:24;11.40;1.00
47384;DHT22;33129;52.232;5.192;2022-12-24T03:30:51;11.40;1.00
47384;DHT22;33129;52.232;5.192;2022-12-24T03:33:17;11.60;1.00
47384;DHT22;33129;52.232;5.192;2022-12-24T03:35:43;11.70;1.00
47384;DHT22;33129;52.232;5.192;2022-12-24T03:38:09;11.60;1.00
47384;DHT22;33129;52.232;5.192;2022-12-24T03:40:35;11.80;1.00
47384;DHT22;33129;52.232;5.192;2022-12-24T03:43:01;11.50;1.00
47384;DHT22;33129;52.232;5.192;2022-12-24T03:45:27;11.50;1.00
47384;DHT22;33129;52.232;5.192;2022-12-24T03:47:52;11.60;1.00
47384;DHT22;33129;52.232;5.192;2022-12-24T03:50:18;11.70;1.00
47384;DHT22;33129;52.232;5.192;2022-12-24T03:52:44;11.40;1.00
47384;DHT22;33129;52.232;5.192;2022-12-24T03:55:09;11.40;1.00
47384;DHT22;33129;52.232;5.192;2022-12-24T03:57:35;11.70;1.00
47384;DHT22;33129;52.232;5.192;2022-12-24T04:00:03;11.70;1.00
47384;DHT22;33129;52.232;5.192;2022-12-24T04:02:30;11.60;1.00
47384;DHT22;33129;52.232;5.192;2022-12-24T04:04:56;11.50;1.00
47384;DHT22;33129;52.232;5.192;2022-12-24T04:07:22;11.70;1.00
47384;DHT22;33129;52.232;5.192;2022-12-24T04:09:48;11.30;1.00
47384;DHT22;33129;52.232;5.192;2022-12-24T04:12:13;11.40;1.00
47384;DHT22;33129;52.232;5.192;2022-12-24T04:14:39;11.60;1.00
47384;DHT22;33129;52.232;5.192;2022-12-24T04:17:05;11.80;1.00
47384;DHT22;33129;52.232;5.192;2022-12-24T04:19:31;11.50;1.00
47384;DHT22;33129;52.232;5.192;2022-12-24T04:21:56;11.60;1.00
47384;DHT22;33129;52.232;5.192;2022-12-24T04:24:22;11.50;1.00
47384;DHT22;33129;52.232;5.192;2022-12-24T04:26:48;11.40;1.00
47384;DHT22;33129;52.232;5.192;2022-12-24T04:29:14;11.50;1.00
47384;DHT22;33129;52.232;5.192;2022-12-24T04:31:39;11.70;1.00
47384;DHT22;33129;52.232;5.192;2022-12-24T04:34:05;11.80;1.00
47384;DHT22;33129;52.232;5.192;2022-12-24T04:36:31;11.60;1.00
47384;DHT22;33129;52.232;5.192;2022-12-24T04:38:56;11.80;1.00
47384;DHT22;33129;52.232;5.192;2022-12-24T04:41:23;11.80;1.00
47384;DHT22;33129;52.232;5.192;2022-12-24T04:43:50;11.80;1.00
47384;DHT22;33129;52.232;5.192;2022-12-24T04:46:22;11.70;1.00
47384;DHT22;33129;52.232;5.192;2022-12-24T04:48:51;11.90;1.00
47384;DHT22;33129;52.232;5.192;2022-12-24T04:51:19;11.80;1.00
47384;DHT22;33129;52.232;5.192;2022-12-24T04:53:45;11.80;1.00
47384;DHT22;33129;52.232;5.192;2022-12-24T04:56:22;11.90;1.00
47384;DHT22;33129;52.232;5.192;2022-12-24T04:58:50;11.90;1.00
47384;DHT22;33129;52.232;5.192;2022-12-24T05:01:34;11.80;1.00
47384;DHT22;33129;52.232;5.192;2022-12-24T05:04:00;12.00;1.00
47384;DHT22;33129;52.232;5.192;2022-12-24T05:06:28;11.90;1.00
47384;DHT22;33129;52.232;5.192;2022-12-24T05:08:56;11.90;1.00
47384;DHT22;33129;52.232;5.192;2022-12-24T05:11:22;11.80;1.00
47384;DHT22;33129;52.232;5.192;2022-12-24T05:13:48;11.90;1.00
47384;DHT22;33129;52.232;5.192;2022-12-24T05:16:17;11.90;1.00
47384;DHT22;33129;52.232;5.192;2022-12-24T05:18:44;11.70;1.00
47384;DHT22;33129;52.232;5.192;2022-12-24T05:21:18;12.00;1.00
47384;DHT22;33129;52.232;5.192;2022-12-24T05:23:46;11.80;1.00
47384;DHT22;33129;52.232;5.192;2022-12-24T05:26:38;12.20;1.00
47384;DHT22;33129;52.232;5.192;2022-12-24T05:29:08;11.90;1.00
47384;DHT22;33129;52.232;5.192;2022-12-24T05:31:36;12.10;1.00
47384;DHT22;33129;52.232;5.192;2022-12-24T05:34:03;12.00;1.00
47384;DHT22;33129;52.232;5.192;2022-12-24T05:36:29;12.20;1.00
47384;DHT22;33129;52.232;5.192;2022-12-24T05:38:55;12.10;1.00
47384;DHT22;33129;52.232;5.192;2022-12-24T05:41:21;12.00;1.00
47384;DHT22;33129;52.232;5.192;2022-12-24T05:43:47;11.90;1.00
47384;DHT22;33129;52.232;5.192;2022-12-24T05:46:15;12.00;1.00
47384;DHT22;33129;52.232;5.192;2022-12-24T05:48:43;11.90;1.00
47384;DHT22;33129;52.232;5.192;2022-12-24T05:51:11;11.70;1.00
47384;DHT22;33129;52.232;5.192;2022-12-24T05:53:38;11.70;1.00
47384;DHT22;33129;52.232;5.192;2022-12-24T05:56:09;11.90;1.00
47384;DHT22;33129;52.232;5.192;2022-12-24T05:58:37;12.00;1.00
47384;DHT22;33129;52.232;5.192;2022-12-24T06:01:04;11.80;1.00
47384;DHT22;33129;52.232;5.192;2022-12-24T06:03:30;11.90;1.00
47384;DHT22;33129;52.232;5.192;2022-12-24T06:06:13;11.90;1.00
47384;DHT22;33129;52.232;5.192;2022-12-24T06:08:42;12.00;1.00
47384;DHT22;33129;52.232;5.192;2022-12-24T06:11:10;12.10;1.00
47384;DHT22;33129;52.232;5.192;2022-12-24T06:13:38;12.10;1.00
47384;DHT22;33129;52.232;5.192;2022-12-24T06:16:06;12.00;1.00
47384;DHT22;33129;52.232;5.192;2022-12-24T06:18:34;11.90;1.00
47384;DHT22;33129;52.232;5.192;2022-12-24T06:21:01;11.80;1.00
47384;DHT22;33129;52.232;5.192;2022-12-24T06:23:29;11.80;1.00
47384;DHT22;33129;52.232;5.192;2022-12-24T06:25:57;11.90;1.00
47384;DHT22;33129;52.232;5.192;2022-12-24T06:28:26;12.00;1.00
47384;DHT22;33129;52.232;5.192;2022-12-24T06:30:52;11.80;1.00
47384;DHT22;33129;52.232;5.192;2022-12-24T06:33:18;11.90;1.00
47384;DHT22;33129;52.232;5.192;2022-12-24T06:35:45;12.10;1.00
47384;DHT22;33129;52.232;5.192;2022-12-24T06:38:14;12.00;1.00
47384;DHT22;33129;52.232;5.192;2022-12-24T06:40:41;11.70;1.00
47384;DHT22;33129;52.232;5.192;2022-12-24T06:43:08;12.00;1.00
47384;DHT22;33129;52.232;5.192;2022-12-24T06:45:35;12.10;1.00
47384;DHT22;33129;52.232;5.192;2022-12-24T06:48:01;12.10;1.00
47384;DHT22;33129;52.232;5.192;2022-12-24T06:50:27;12.00;1.00
47384;DHT22;33129;52.232;5.192;2022-12-24T06:52:53;12.00;1.00
47384;DHT22;33129;52.232;5.192;2022-12-24T06:55:18;12.10;1.00
47384;DHT22;33129;52.232;5.192;2022-12-24T06:57:44;12.10;1.00
47384;DHT22;33129;52.232;5.192;2022-12-24T07:00:11;12.00;1.00
47384;DHT22;33129;52.232;5.192;2022-12-24T07:02:41;11.80;1.00
47384;DHT22;33129;52.232;5.192;2022-12-24T07:05:09;11.90;1.00
47384;DHT22;33129;52.232;5.192;2022-12-24T07:07:39;12.10;1.00
47384;DHT22;33129;52.232;5.192;2022-12-24T07:10:07;12.20;1.00
47384;DHT22;33129;52.232;5.192;2022-12-24T07:12:35;11.90;1.00
47384;DHT22;33129;52.232;5.192;2022-12-24T07:15:00;11.90;1.00
47384;DHT22;33129;52.232;5.192;2022-12-24T07:17:26;12.20;1.00
47384;DHT22;33129;52.232;5.192;2022-12-24T07:19:52;12.10;1.00
47384;DHT22;33129;52.232;5.192;2022-12-24T07:22:18;12.00;1.00
47384;DHT22;33129;52.232;5.192;2022-12-24T07:24:43;12.10;1.00
47384;DHT22;33129;52.232;5.192;2022-12-24T07:27:09;12.10;1.00
47384;DHT22;33129;52.232;5.192;2022-12-24T07:29:35;12.10;1.00
47384;DHT22;33129;52.232;5.192;2022-12-24T07:32:01;12.00;1.00
47384;DHT22;33129;52.232;5.192;2022-12-24T07:34:27;12.10;1.00
47384;DHT22;33129;52.232;5.192;2022-12-24T07:36:52;11.70;1.00
47384;DHT22;33129;52.232;5.192;2022-12-24T07:39:18;12.10;1.00
47384;DHT22;33129;52.232;5.192;2022-12-24T07:41:44;12.00;1.00
47384;DHT22;33129;52.232;5.192;2022-12-24T07:44:14;11.90;1.00
47384;DHT22;33129;52.232;5.192;2022-12-24T07:46:40;12.00;1.00
47384;DHT22;33129;52.232;5.192;2022-12-24T07:49:06;12.00;1.00
47384;DHT22;33129;52.232;5.192;2022-12-24T07:51:31;12.10;1.00
47384;DHT22;33129;52.232;5.192;2022-12-24T07:53:57;12.10;1.00
47384;DHT22;33129;52.232;5.192;2022-12-24T07:56:23;12.00;1.00
47384;DHT22;33129;52.232;5.192;2022-12-24T07:58:50;12.00;1.00
47384;DHT22;33129;52.232;5.192;2022-12-24T08:01:17;11.90;1.00
47384;DHT22;33129;52.232;5.192;2022-12-24T08:03:44;12.20;1.00
47384;DHT22;33129;52.232;5.192;2022-12-24T08:06:10;11.80;1.00
47384;DHT22;33129;52.232;5.192;2022-12-24T08:08:36;11.60;1.00
47384;DHT22;33129;52.232;5.192;2022-12-24T08:11:04;11.80;1.00
47384;DHT22;33129;52.232;5.192;2022-12-24T08:13:31;11.80;1.00
47384;DHT22;33129;52.232;5.192;2022-12-24T08:15:58;11.90;1.00
47384;DHT22;33129;52.232;5.192;2022-12-24T08:18:24;12.00;1.00
47384;DHT22;33129;52.232;5.192;2022-12-24T08:20:50;12.00;1.00
47384;DHT22;33129;52.232;5.192;2022-12-24T08:23:16;12.10;1.00
47384;DHT22;33129;52.232;5.192;2022-12-24T08:25:47;12.10;1.00
47384;DHT22;33129;52.232;5.192;2022-12-24T08:28:15;12.00;1.00
47384;DHT22;33129;52.232;5.192;2022-12-24T08:30:44;11.80;1.00
47384;DHT22;33129;52.232;5.192;2022-12-24T08:33:11;11.90;1.00
47384;DHT22;33129;52.232;5.192;2022-12-24T08:35:37;11.80;1.00
47384;DHT22;33129;52.232;5.192;2022-12-24T08:38:03;12.10;1.00
47384;DHT22;33129;52.232;5.192;2022-12-24T08:40:28;12.00;1.00
47384;DHT22;33129;52.232;5.192;2022-12-24T08:42:54;12.10;1.00
47384;DHT22;33129;52.232;5.192;2022-12-24T08:45:20;12.00;1.00
47384;DHT22;33129;52.232;5.192;2022-12-24T08:47:48;12.00;1.00
47384;DHT22;33129;52.232;5.192;2022-12-24T08:50:14;12.00;1.00
47384;DHT22;33129;52.232;5.192;2022-12-24T08:52:39;12.10;1.00
47384;DHT22;33129;52.232;5.192;2022-12-24T08:55:07;12.20;1.00
47384;DHT22;33129;52.232;5.192;2022-12-24T08:57:37;12.20;1.00
47384;DHT22;33129;52.232;5.192;2022-12-24T09:00:10;11.90;1.00
47384;DHT22;33129;52.232;5.192;2022-12-24T09:02:51;12.20;1.00
47384;DHT22;33129;52.232;5.192;2022-12-24T09:05:16;12.00;1.00
47384;DHT22;33129;52.232;5.192;2022-12-24T09:07:42;12.10;1.00
47384;DHT22;33129;52.232;5.192;2022-12-24T09:10:09;12.30;1.00
47384;DHT22;33129;52.232;5.192;2022-12-24T09:12:35;11.90;1.00
47384;DHT22;33129;52.232;5.192;2022-12-24T09:15:02;12.40;1.00
47384;DHT22;33129;52.232;5.192;2022-12-24T09:17:28;12.00;1.00
47384;DHT22;33129;52.232;5.192;2022-12-24T09:19:54;12.20;1.00
47384;DHT22;33129;52.232;5.192;2022-12-24T09:22:21;12.20;1.00
47384;DHT22;33129;52.232;5.192;2022-12-24T09:24:46;12.30;1.00
47384;DHT22;33129;52.232;5.192;2022-12-24T09:27:12;12.20;1.00
47384;DHT22;33129;52.232;5.192;2022-12-24T09:29:39;12.10;1.00
47384;DHT22;33129;52.232;5.192;2022-12-24T09:32:07;12.40;1.00
47384;DHT22;33129;52.232;5.192;2022-12-24T09:34:48;12.50;1.00
47384;DHT22;33129;52.232;5.192;2022-12-24T09:37:17;12.60;1.00
47384;DHT22;33129;52.232;5.192;2022-12-24T09:39:54;12.40;1.00
47384;DHT22;33129;52.232;5.192;2022-12-24T09:42:51;12.70;1.00
47384;DHT22;33129;52.232;5.192;2022-12-24T09:45:27;12.60;1.00
47384;DHT22;33129;52.232;5.192;2022-12-24T09:48:02;12.60;1.00
47384;DHT22;33129;52.232;5.192;2022-12-24T09:50:59;13.00;1.00
47384;DHT22;33129;52.232;5.192;2022-12-24T09:56:18;12.60;1.00
47384;DHT22;33129;52.232;5.192;2022-12-24T09:58:54;12.60;1.00
47384;DHT22;33129;52.232;5.192;2022-12-24T10:01:24;12.90;1.00
47384;DHT22;33129;52.232;5.192;2022-12-24T10:03:50;12.60;1.00
47384;DHT22;33129;52.232;5.192;2022-12-24T10:06:23;12.70;1.00
47384;DHT22;33129;52.232;5.192;2022-12-24T10:17:50;12.70;1.00
47384;DHT22;33129;52.232;5.192;2022-12-24T10:23:36;13.00;1.00
47384;DHT22;33129;52.232;5.192;2022-12-24T10:26:26;12.90;1.00
47384;DHT22;33129;52.232;5.192;2022-12-24T10:37:40;13.30;1.00
47384;DHT22;33129;52.232;5.192;2022-12-24T10:43:24;13.10;1.00
47384;DHT22;33129;52.232;5.192;2022-12-24T10:45:57;13.00;1.00
47384;DHT22;33129;52.232;5.192;2022-12-24T10:48:35;13.10;1.00
47384;DHT22;33129;52.232;5.192;2022-12-24T10:51:24;13.00;1.00
47384;DHT22;33129;52.232;5.192;2022-12-24T10:54:15;13.00;1.00
47384;DHT22;33129;52.232;5.192;2022-12-24T10:56:47;12.80;1.00
47384;DHT22;33129;52.232;5.192;2022-12-24T10:59:41;13.00;1.00
47384;DHT22;33129;52.232;5.192;2022-12-24T11:08:00;12.90;1.00
47384;DHT22;33129;52.232;5.192;2022-12-24T11:10:28;12.90;1.00
47384;DHT22;33129;52.232;5.192;2022-12-24T11:12:54;13.10;1.00
47384;DHT22;33129;52.232;5.192;2022-12-24T11:15:30;13.00;1.00
47384;DHT22;33129;52.232;5.192;2022-12-24T11:18:01;12.80;1.00
47384;DHT22;33129;52.232;5.192;2022-12-24T11:20:31;13.20;1.00
47384;DHT22;33129;52.232;5.192;2022-12-24T11:22:59;13.10;1.00
47384;DHT22;33129;52.232;5.192;2022-12-24T11:25:31;12.80;1.00
47384;DHT22;33129;52.232;5.192;2022-12-24T11:28:21;13.20;1.00
47384;DHT22;33129;52.232;5.192;2022-12-24T11:30:56;13.20;1.00
47384;DHT22;33129;52.232;5.192;2022-12-24T11:33:29;13.20;1.00
47384;DHT22;33129;52.232;5.192;2022-12-24T11:36:00;13.10;1.00
47384;DHT22;33129;52.232;5.192;2022-12-24T11:38:29;13.00;1.00
47384;DHT22;33129;52.232;5.192;2022-12-24T11:43:36;13.10;1.00
47384;DHT22;33129;52.232;5.192;2022-12-24T11:46:20;13.10;1.00
47384;DHT22;33129;52.232;5.192;2022-12-24T11:51:39;13.60;1.00
47384;DHT22;33129;52.232;5.192;2022-12-24T11:54:25;13.40;1.00
47384;DHT22;33129;52.232;5.192;2022-12-24T11:56:56;13.30;1.00
47384;DHT22;33129;52.232;5.192;2022-12-24T11:59:35;13.50;1.00
47384;DHT22;33129;52.232;5.192;2022-12-24T12:04:58;13.50;1.00
47384;DHT22;33129;52.232;5.192;2022-12-24T12:07:30;13.40;1.00
47384;DHT22;33129;52.232;5.192;2022-12-24T12:10:19;13.50;1.00
47384;DHT22;33129;52.232;5.192;2022-12-24T12:13:01;13.70;1.00
47384;DHT22;33129;52.232;5.192;2022-12-24T12:15:43;13.50;1.00
47384;DHT22;33129;52.232;5.192;2022-12-24T12:18:36;13.90;1.00
47384;DHT22;33129;52.232;5.192;2022-12-24T12:21:13;14.00;1.00
47384;DHT22;33129;52.232;5.192;2022-12-24T12:24:02;13.80;1.00
47384;DHT22;33129;52.232;5.192;2022-12-24T12:26:31;13.70;1.00
47384;DHT22;33129;52.232;5.192;2022-12-24T12:31:48;13.40;1.00
47384;DHT22;33129;52.232;5.192;2022-12-24T12:34:41;13.50;1.00
47384;DHT22;33129;52.232;5.192;2022-12-24T12:37:22;13.30;1.00
47384;DHT22;33129;52.232;5.192;2022-12-24T12:39:55;13.40;1.00
47384;DHT22;33129;52.232;5.192;2022-12-24T12:42:31;13.50;1.00
47384;DHT22;33129;52.232;5.192;2022-12-24T12:48:04;13.70;1.00
47384;DHT22;33129;52.232;5.192;2022-12-24T12:51:07;13.60;1.00
47384;DHT22;33129;52.232;5.192;2022-12-24T12:56:56;13.70;1.00
47384;DHT22;33129;52.232;5.192;2022-12-24T12:59:33;13.80;1.00
47384;DHT22;33129;52.232;5.192;2022-12-24T13:11:25;13.80;1.00
47384;DHT22;33129;52.232;5.192;2022-12-24T13:25:44;14.00;1.00
47384;DHT22;33129;52.232;5.192;2022-12-24T13:36:11;14.30;1.00
